createdAt,value
2018-12-20T00:00:14.130Z,15.90
2018-12-20T00:02:41.706Z,15.80
2018-12-20T00:05:09.243Z,15.90
2018-12-20T00:07:36.768Z,15.80
2018-12-20T00:10:04.427Z,15.90
2018-12-20T00:12:31.919Z,15.80
2018-12-20T00:14:59.415Z,15.90
2018-12-20T00:17:32.497Z,15.90
2018-12-20T00:20:00.036Z,15.80
2018-12-20T00:22:27.608Z,15.80
2018-12-20T00:24:55.209Z,15.90
2018-12-20T00:27:22.758Z,15.90
2018-12-20T00:29:50.423Z,15.90
2018-12-20T00:32:17.977Z,15.90
2018-12-20T00:34:45.734Z,15.90
2018-12-20T00:37:13.305Z,15.90
2018-12-20T00:39:40.927Z,15.90
2018-12-20T00:42:08.686Z,15.90
2018-12-20T00:44:37.491Z,16.00
2018-12-20T00:47:05.259Z,16.00
2018-12-20T00:49:32.722Z,15.90
2018-12-20T00:52:00.178Z,15.90
2018-12-20T00:54:27.743Z,15.90
2018-12-20T00:56:55.261Z,15.90
2018-12-20T00:59:22.972Z,15.90
2018-12-20T01:01:50.665Z,15.90
2018-12-20T01:04:18.147Z,15.90
2018-12-20T01:06:45.760Z,15.90
2018-12-20T01:09:13.277Z,15.90
2018-12-20T01:11:40.792Z,15.90
2018-12-20T01:14:08.316Z,15.90
2018-12-20T01:16:35.786Z,15.90
2018-12-20T01:19:03.583Z,15.90
2018-12-20T01:21:31.221Z,15.90
2018-12-20T01:23:58.812Z,15.90
2018-12-20T01:26:26.383Z,15.90
2018-12-20T01:28:53.845Z,15.90
2018-12-20T01:31:21.333Z,15.90
2018-12-20T01:33:48.882Z,15.90
2018-12-20T01:36:16.426Z,15.90
2018-12-20T01:38:43.897Z,15.90
2018-12-20T01:41:11.399Z,15.90
2018-12-20T01:43:38.970Z,15.90
2018-12-20T01:46:06.565Z,15.90
2018-12-20T01:48:34.058Z,15.90
2018-12-20T01:51:01.611Z,15.90
2018-12-20T01:53:29.105Z,15.90
2018-12-20T01:55:56.629Z,16.00
2018-12-20T01:58:24.265Z,16.00
2018-12-20T02:00:51.762Z,16.00
2018-12-20T02:03:19.317Z,16.00
2018-12-20T02:05:46.902Z,15.90
2018-12-20T02:08:14.454Z,16.00
2018-12-20T02:10:41.992Z,16.00
2018-12-20T02:13:09.574Z,15.90
2018-12-20T02:15:37.172Z,15.90
2018-12-20T02:18:04.755Z,15.90
2018-12-20T02:20:32.229Z,16.00
2018-12-20T02:22:59.838Z,16.00
2018-12-20T02:25:27.348Z,15.90
2018-12-20T02:27:54.861Z,15.90
2018-12-20T02:30:22.398Z,16.00
2018-12-20T02:32:49.879Z,15.90
2018-12-20T02:35:17.649Z,15.90
2018-12-20T02:37:45.638Z,15.90
2018-12-20T02:40:13.129Z,15.90
2018-12-20T02:42:40.687Z,16.00
2018-12-20T02:45:11.009Z,16.00
2018-12-20T02:47:38.698Z,16.00
2018-12-20T02:50:06.173Z,16.00
2018-12-20T02:52:33.645Z,16.00
2018-12-20T02:55:01.363Z,16.00
2018-12-20T02:57:28.870Z,15.90
2018-12-20T02:59:56.315Z,16.00
2018-12-20T03:02:24.059Z,16.00
2018-12-20T03:04:51.673Z,16.00
2018-12-20T03:07:19.258Z,16.00
2018-12-20T03:09:46.936Z,16.00
2018-12-20T03:12:14.661Z,16.00
2018-12-20T03:14:42.232Z,16.00
2018-12-20T03:17:09.795Z,16.00
2018-12-20T03:19:37.595Z,16.00
2018-12-20T03:22:05.175Z,16.00
2018-12-20T03:24:32.728Z,16.00
2018-12-20T03:27:00.378Z,16.00
2018-12-20T03:29:28.145Z,16.00
2018-12-20T03:31:55.969Z,16.00
2018-12-20T03:34:23.487Z,16.00
2018-12-20T03:36:51.239Z,16.00
2018-12-20T03:39:18.838Z,16.00
2018-12-20T03:41:46.446Z,16.00
2018-12-20T03:44:13.941Z,16.00
2018-12-20T03:46:42.406Z,16.00
2018-12-20T03:49:09.856Z,16.00
2018-12-20T03:51:37.638Z,16.00
2018-12-20T03:54:05.191Z,16.00
2018-12-20T03:56:32.939Z,16.00
2018-12-20T03:59:00.447Z,16.10
2018-12-20T04:01:28.014Z,16.00
2018-12-20T04:03:55.717Z,16.00
2018-12-20T04:06:23.345Z,16.00
2018-12-20T04:08:51.003Z,16.00
2018-12-20T04:11:18.598Z,16.00
2018-12-20T04:13:46.074Z,16.00
2018-12-20T04:16:13.812Z,16.00
2018-12-20T04:18:41.495Z,16.00
2018-12-20T04:21:09.330Z,16.00
2018-12-20T04:23:36.858Z,16.00
2018-12-20T04:26:04.305Z,16.00
2018-12-20T04:28:31.831Z,16.00
2018-12-20T04:30:59.353Z,16.00
2018-12-20T04:33:26.983Z,16.00
2018-12-20T04:35:54.681Z,16.00
2018-12-20T04:38:22.272Z,16.00
2018-12-20T04:40:49.787Z,16.00
2018-12-20T04:43:17.325Z,16.00
2018-12-20T04:45:46.852Z,16.00
2018-12-20T04:48:15.594Z,16.00
2018-12-20T04:50:43.371Z,16.00
2018-12-20T04:53:10.959Z,16.00
2018-12-20T04:55:38.486Z,16.00
2018-12-20T04:58:06.000Z,16.00
2018-12-20T05:00:33.659Z,16.00
2018-12-20T05:03:01.261Z,16.00
2018-12-20T05:05:28.813Z,16.00
2018-12-20T05:07:56.295Z,16.00
2018-12-20T05:10:24.025Z,16.00
2018-12-20T05:12:51.502Z,16.00
2018-12-20T05:15:19.054Z,16.00
2018-12-20T05:17:46.612Z,16.00
2018-12-20T05:20:14.158Z,16.00
2018-12-20T05:22:41.709Z,16.00
2018-12-20T05:25:09.294Z,16.10
2018-12-20T05:27:36.815Z,16.10
2018-12-20T05:30:06.030Z,16.10
2018-12-20T05:32:33.541Z,16.10
2018-12-20T05:35:01.122Z,16.20
2018-12-20T05:37:28.672Z,16.20
2018-12-20T05:39:56.463Z,16.20
2018-12-20T05:42:23.990Z,16.20
2018-12-20T05:44:51.843Z,16.20
2018-12-20T05:47:19.431Z,16.20
2018-12-20T05:49:47.271Z,16.20
2018-12-20T05:52:14.877Z,16.30
2018-12-20T05:54:42.390Z,16.30
2018-12-20T05:57:09.897Z,16.30
2018-12-20T05:59:37.450Z,16.30
2018-12-20T06:02:04.948Z,16.30
2018-12-20T06:04:32.629Z,16.30
2018-12-20T06:07:00.129Z,16.30
2018-12-20T06:09:27.830Z,16.30
2018-12-20T06:11:56.613Z,16.30
2018-12-20T06:14:24.631Z,16.30
2018-12-20T06:16:52.268Z,16.30
2018-12-20T06:19:19.882Z,16.30
2018-12-20T06:21:47.473Z,16.30
2018-12-20T06:24:15.061Z,16.40
2018-12-20T06:26:42.530Z,16.40
2018-12-20T06:29:10.006Z,16.40
2018-12-20T06:31:37.470Z,16.40
2018-12-20T06:34:04.997Z,16.40
2018-12-20T06:36:32.484Z,16.40
2018-12-20T06:38:59.957Z,16.40
2018-12-20T06:41:27.446Z,16.40
2018-12-20T06:43:54.922Z,16.40
2018-12-20T06:46:22.776Z,16.50
2018-12-20T06:48:50.380Z,16.50
2018-12-20T06:51:17.827Z,16.50
2018-12-20T06:53:45.381Z,16.50
2018-12-20T06:56:12.855Z,16.50
2018-12-20T06:58:40.333Z,16.50
2018-12-20T07:01:07.795Z,16.50
2018-12-20T07:03:35.262Z,16.50
2018-12-20T07:06:02.752Z,16.50
2018-12-20T07:08:30.220Z,16.50
2018-12-20T07:10:57.701Z,16.50
2018-12-20T07:13:25.166Z,16.60
2018-12-20T07:15:52.629Z,16.50
2018-12-20T07:18:20.081Z,16.60
2018-12-20T07:20:47.533Z,16.60
2018-12-20T07:23:15.009Z,16.60
2018-12-20T07:25:42.465Z,16.60
2018-12-20T07:28:09.954Z,16.60
2018-12-20T07:30:37.431Z,16.60
2018-12-20T07:33:04.877Z,16.60
2018-12-20T07:35:32.349Z,16.60
2018-12-20T07:37:59.828Z,16.60
2018-12-20T07:40:27.313Z,16.60
2018-12-20T07:42:54.788Z,16.60
2018-12-20T07:45:22.293Z,16.60
2018-12-20T07:47:49.761Z,16.60
2018-12-20T07:50:17.231Z,16.60
2018-12-20T07:52:44.780Z,16.60
2018-12-20T07:55:12.280Z,16.70
2018-12-20T07:57:39.741Z,16.60
2018-12-20T08:00:07.222Z,16.70
2018-12-20T08:02:34.693Z,16.70
2018-12-20T08:05:02.182Z,16.70
2018-12-20T08:07:29.652Z,16.70
2018-12-20T08:09:57.117Z,16.70
2018-12-20T08:12:24.600Z,16.70
2018-12-20T08:14:52.076Z,16.70
2018-12-20T08:17:19.561Z,16.70
2018-12-20T08:19:47.052Z,16.70
2018-12-20T08:22:14.533Z,16.70
2018-12-20T08:24:42.028Z,16.70
2018-12-20T08:27:09.575Z,16.70
2018-12-20T08:29:37.954Z,16.70
2018-12-20T08:32:05.420Z,16.80
2018-12-20T08:34:32.937Z,16.80
2018-12-20T08:37:00.442Z,16.70
2018-12-20T08:39:27.916Z,16.70
2018-12-20T08:41:55.430Z,16.70
2018-12-20T08:44:22.910Z,16.80
2018-12-20T08:46:54.353Z,16.80
2018-12-20T08:49:19.841Z,16.70
2018-12-20T08:51:49.165Z,16.70
2018-12-20T08:54:16.739Z,16.80
2018-12-20T08:56:44.193Z,16.80
2018-12-20T08:59:11.645Z,16.80
2018-12-20T09:01:39.097Z,16.80
2018-12-20T09:04:06.569Z,16.80
2018-12-20T09:06:34.025Z,16.80
2018-12-20T09:09:01.554Z,16.80
2018-12-20T09:11:29.057Z,16.80
2018-12-20T09:13:56.620Z,16.80
2018-12-20T09:16:24.250Z,16.80
2018-12-20T09:18:51.723Z,16.80
2018-12-20T09:21:19.247Z,16.90
2018-12-20T09:23:46.693Z,16.90
2018-12-20T09:26:14.139Z,16.80
2018-12-20T09:28:41.752Z,16.80
2018-12-20T09:31:13.029Z,16.90
2018-12-20T09:33:40.483Z,16.80
2018-12-20T09:36:07.954Z,16.80
2018-12-20T09:38:35.498Z,16.80
2018-12-20T09:41:02.960Z,16.90
2018-12-20T09:43:30.486Z,16.90
2018-12-20T09:45:57.973Z,16.90
2018-12-20T09:48:25.592Z,16.90
2018-12-20T09:51:00.073Z,16.90
2018-12-20T09:53:27.544Z,16.90
2018-12-20T09:55:55.003Z,16.90
2018-12-20T09:58:22.455Z,16.90
2018-12-20T10:00:49.942Z,16.90
2018-12-20T10:03:17.397Z,16.90
2018-12-20T10:05:44.872Z,16.90
2018-12-20T10:08:12.329Z,16.90
2018-12-20T10:10:39.788Z,16.90
2018-12-20T10:13:07.263Z,16.90
2018-12-20T10:15:34.733Z,16.90
2018-12-20T10:18:02.210Z,16.90
2018-12-20T10:20:29.685Z,16.90
2018-12-20T10:22:57.138Z,16.90
2018-12-20T10:25:24.608Z,16.90
2018-12-20T10:27:52.054Z,17.00
2018-12-20T10:30:19.566Z,16.90
2018-12-20T10:32:47.087Z,16.90
2018-12-20T10:35:14.551Z,16.90
2018-12-20T10:37:42.027Z,16.90
2018-12-20T10:40:09.500Z,16.90
2018-12-20T10:42:36.979Z,16.90
2018-12-20T10:45:04.771Z,16.90
2018-12-20T10:47:32.223Z,16.90
2018-12-20T10:49:59.686Z,16.90
2018-12-20T10:52:27.162Z,16.90
2018-12-20T10:54:54.658Z,16.90
2018-12-20T10:57:22.185Z,16.90
2018-12-20T10:59:49.649Z,16.90
2018-12-20T11:02:22.612Z,16.90
2018-12-20T11:04:55.615Z,16.90
2018-12-20T11:07:28.538Z,16.90
2018-12-20T11:10:01.409Z,16.90
2018-12-20T11:12:34.455Z,16.90
2018-12-20T11:15:01.920Z,16.90
2018-12-20T11:17:37.137Z,16.90
2018-12-20T11:19:58.859Z,16.90
2018-12-20T11:22:26.404Z,16.90
2018-12-20T11:24:53.860Z,16.90
2018-12-20T11:27:21.337Z,16.90
2018-12-20T11:29:48.795Z,16.80
2018-12-20T11:32:16.274Z,16.90
2018-12-20T11:34:43.744Z,16.90
2018-12-20T11:37:11.226Z,16.90
2018-12-20T11:39:38.689Z,16.90
2018-12-20T11:42:06.173Z,16.90
2018-12-20T11:44:33.629Z,16.90
2018-12-20T11:47:01.190Z,17.00
2018-12-20T11:49:28.641Z,17.00
2018-12-20T11:51:56.202Z,17.00
2018-12-20T11:54:23.687Z,17.00
2018-12-20T11:56:51.187Z,17.00
2018-12-20T11:59:18.775Z,17.00
2018-12-20T12:01:46.473Z,17.00
2018-12-20T12:04:13.998Z,16.90
2018-12-20T12:06:41.549Z,16.90
2018-12-20T12:09:09.135Z,16.90
2018-12-20T12:11:36.641Z,16.80
2018-12-20T12:14:04.170Z,16.80
2018-12-20T12:16:31.645Z,16.80
2018-12-20T12:18:59.108Z,16.80
2018-12-20T12:21:26.622Z,16.80
2018-12-20T12:23:54.141Z,16.90
2018-12-20T12:26:21.631Z,16.80
2018-12-20T12:28:49.113Z,16.80
2018-12-20T12:31:16.797Z,16.80
2018-12-20T12:33:44.290Z,16.80
2018-12-20T12:36:11.796Z,16.80
2018-12-20T12:38:39.270Z,16.80
2018-12-20T12:41:06.786Z,16.80
2018-12-20T12:43:34.270Z,16.80
2018-12-20T12:46:01.749Z,16.90
2018-12-20T12:48:29.236Z,16.80
2018-12-20T12:50:56.810Z,16.80
2018-12-20T12:53:24.296Z,16.80
2018-12-20T12:55:51.778Z,16.80
2018-12-20T12:58:19.286Z,16.80
2018-12-20T13:00:46.759Z,16.80
2018-12-20T13:03:14.233Z,16.90
2018-12-20T13:05:41.710Z,16.90
2018-12-20T13:08:09.193Z,16.90
2018-12-20T13:10:36.675Z,16.90
2018-12-20T13:13:04.162Z,16.90
2018-12-20T13:15:31.672Z,16.90
2018-12-20T13:17:59.181Z,16.90
2018-12-20T13:20:26.660Z,16.80
2018-12-20T13:22:54.296Z,16.90
2018-12-20T13:25:21.776Z,16.90
2018-12-20T13:27:49.285Z,16.90
2018-12-20T13:30:16.796Z,16.90
2018-12-20T13:32:44.279Z,16.90
2018-12-20T13:35:11.762Z,16.90
2018-12-20T13:37:39.303Z,16.90
2018-12-20T13:40:06.906Z,16.90
2018-12-20T13:42:40.773Z,16.90
2018-12-20T13:45:08.370Z,16.90
2018-12-20T13:47:35.992Z,16.90
2018-12-20T13:50:04.002Z,16.90
2018-12-20T13:52:32.867Z,16.90
2018-12-20T13:55:01.362Z,16.80
2018-12-20T13:57:29.539Z,16.80
2018-12-20T13:59:57.812Z,16.80
2018-12-20T14:02:26.088Z,16.90
2018-12-20T14:04:53.660Z,16.90
2018-12-20T14:07:22.548Z,16.90
2018-12-20T14:09:50.285Z,16.90
2018-12-20T14:12:17.870Z,16.90
2018-12-20T14:14:45.555Z,16.80
2018-12-20T14:17:13.166Z,16.80
2018-12-20T14:19:41.582Z,16.80
2018-12-20T14:22:09.702Z,16.80
2018-12-20T14:24:37.371Z,16.80
2018-12-20T14:27:04.930Z,16.80
2018-12-20T14:29:33.611Z,16.80
2018-12-20T14:32:01.537Z,16.80
2018-12-20T14:34:29.710Z,16.80
2018-12-20T14:36:58.078Z,16.80
2018-12-20T14:39:25.770Z,16.80
2018-12-20T14:41:53.471Z,16.80
2018-12-20T14:44:21.145Z,16.70
2018-12-20T14:46:48.663Z,16.80
2018-12-20T14:49:16.214Z,16.80
2018-12-20T14:51:43.693Z,16.80
2018-12-20T14:54:11.251Z,16.70
2018-12-20T14:56:38.775Z,16.70
2018-12-20T14:59:06.390Z,16.70
2018-12-20T15:01:33.925Z,16.70
2018-12-20T15:04:01.448Z,16.70
2018-12-20T15:06:28.917Z,16.70
2018-12-20T15:08:56.456Z,16.70
2018-12-20T15:11:23.946Z,16.70
2018-12-20T15:13:51.457Z,16.70
2018-12-20T15:16:18.965Z,16.70
2018-12-20T15:18:47.843Z,16.70
2018-12-20T15:21:15.643Z,16.70
2018-12-20T15:26:32.125Z,16.70
2018-12-20T15:28:59.747Z,16.60
2018-12-20T15:31:27.568Z,16.60
2018-12-20T15:33:55.210Z,16.70
2018-12-20T15:36:22.866Z,16.70
2018-12-20T15:38:50.498Z,16.70
2018-12-20T15:41:18.053Z,16.70
2018-12-20T15:43:45.619Z,16.70
2018-12-20T15:46:13.119Z,16.60
2018-12-20T15:48:40.744Z,16.70
2018-12-20T15:51:08.331Z,16.70
2018-12-20T15:53:35.973Z,16.70
2018-12-20T15:56:03.493Z,16.70
2018-12-20T15:58:35.570Z,16.70
2018-12-20T16:01:03.073Z,16.70
2018-12-20T16:03:30.566Z,16.70
2018-12-20T16:05:58.146Z,16.60
2018-12-20T16:08:25.639Z,16.70
2018-12-20T16:10:53.106Z,16.70
2018-12-20T16:13:20.601Z,16.70
2018-12-20T16:15:48.278Z,16.70
2018-12-20T16:18:15.778Z,16.60
2018-12-20T16:20:43.302Z,16.60
2018-12-20T16:23:10.789Z,16.70
2018-12-20T16:25:38.290Z,16.60
2018-12-20T16:28:05.786Z,16.60
2018-12-20T16:30:33.306Z,16.60
2018-12-20T16:33:00.825Z,16.60
2018-12-20T16:35:28.324Z,16.60
2018-12-20T16:37:55.821Z,16.60
2018-12-20T16:40:23.315Z,16.60
2018-12-20T16:42:50.839Z,16.70
2018-12-20T16:45:18.370Z,16.70
2018-12-20T16:47:45.873Z,16.70
2018-12-20T16:50:13.425Z,16.70
2018-12-20T16:52:40.897Z,16.70
2018-12-20T16:55:08.429Z,16.70
2018-12-20T16:57:35.927Z,16.70
2018-12-20T17:00:03.717Z,16.70
2018-12-20T17:02:32.047Z,16.80
2018-12-20T17:04:59.688Z,16.80
2018-12-20T17:07:27.286Z,16.80
2018-12-20T17:09:54.831Z,16.80
2018-12-20T17:12:22.430Z,16.80
2018-12-20T17:14:49.989Z,16.80
2018-12-20T17:17:17.490Z,16.90
2018-12-20T17:19:45.001Z,16.90
2018-12-20T17:22:12.534Z,16.90
2018-12-20T17:24:40.110Z,16.90
2018-12-20T17:27:07.596Z,16.80
2018-12-20T17:29:35.118Z,16.90
2018-12-20T17:32:02.662Z,16.90
2018-12-20T17:34:30.138Z,16.90
2018-12-20T17:36:57.625Z,16.90
2018-12-20T17:39:25.110Z,16.90
2018-12-20T17:41:52.746Z,16.90
2018-12-20T17:44:20.256Z,16.90
2018-12-20T17:46:47.775Z,17.00
2018-12-20T17:49:15.455Z,16.90
2018-12-20T17:51:42.970Z,17.00
2018-12-20T17:54:10.471Z,17.00
2018-12-20T17:56:37.951Z,16.90
2018-12-20T17:59:05.422Z,17.00
2018-12-20T18:01:33.036Z,16.90
2018-12-20T18:04:00.518Z,16.80
2018-12-20T18:06:27.973Z,16.70
2018-12-20T18:08:55.454Z,16.60
2018-12-20T18:11:22.924Z,16.40
2018-12-20T18:13:50.422Z,16.30
2018-12-20T18:16:17.961Z,16.30
2018-12-20T18:18:45.441Z,16.30
2018-12-20T18:21:12.948Z,16.50
2018-12-20T18:23:40.423Z,16.60
2018-12-20T18:26:07.924Z,16.60
2018-12-20T18:28:35.401Z,16.60
2018-12-20T18:31:02.904Z,16.70
2018-12-20T18:33:30.401Z,16.70
2018-12-20T18:35:57.920Z,16.70
2018-12-20T18:38:25.399Z,16.70
2018-12-20T18:40:52.913Z,16.70
2018-12-20T18:43:20.415Z,16.70
2018-12-20T18:45:47.958Z,16.70
2018-12-20T18:48:15.461Z,16.70
2018-12-20T18:50:42.966Z,16.70
2018-12-20T18:53:10.467Z,16.70
2018-12-20T18:55:38.878Z,16.70
2018-12-20T18:58:06.384Z,16.80
2018-12-20T19:00:35.958Z,16.80
2018-12-20T19:03:03.755Z,16.80
2018-12-20T19:05:31.313Z,16.90
2018-12-20T19:08:00.830Z,16.90
2018-12-20T19:10:30.570Z,16.90
2018-12-20T19:12:59.869Z,16.90
2018-12-20T19:15:28.450Z,16.90
2018-12-20T19:17:56.029Z,16.90
2018-12-20T19:20:23.569Z,16.90
2018-12-20T19:22:51.713Z,16.90
2018-12-20T19:25:19.467Z,17.00
2018-12-20T19:27:46.984Z,16.90
2018-12-20T19:30:14.993Z,16.90
2018-12-20T19:32:42.557Z,16.90
2018-12-20T19:35:10.274Z,16.90
2018-12-20T19:37:37.765Z,16.80
2018-12-20T19:40:07.914Z,16.80
2018-12-20T19:42:36.370Z,16.80
2018-12-20T19:45:03.994Z,16.80
2018-12-20T19:47:31.469Z,16.80
2018-12-20T19:50:04.694Z,16.80
2018-12-20T19:52:28.514Z,16.80
2018-12-20T19:54:56.491Z,16.70
2018-12-20T19:57:24.153Z,16.80
2018-12-20T19:59:52.579Z,16.80
2018-12-20T20:02:20.156Z,16.80
2018-12-20T20:04:48.031Z,16.70
2018-12-20T20:07:16.616Z,16.80
2018-12-20T20:09:44.175Z,16.80
2018-12-20T20:12:12.214Z,16.70
2018-12-20T20:14:39.945Z,16.70
2018-12-20T20:17:07.465Z,16.70
2018-12-20T20:19:35.246Z,16.70
2018-12-20T20:22:02.774Z,16.70
2018-12-20T20:24:30.525Z,16.70
2018-12-20T20:26:58.237Z,16.70
2018-12-20T20:29:26.127Z,16.70
2018-12-20T20:31:53.633Z,16.70
2018-12-20T20:34:21.389Z,16.70
2018-12-20T20:36:49.623Z,16.70
2018-12-20T20:39:17.178Z,16.70
2018-12-20T20:41:44.685Z,16.70
2018-12-20T20:44:13.303Z,16.70
2018-12-20T20:46:41.038Z,16.70
2018-12-20T20:49:09.365Z,16.70
2018-12-20T20:51:37.970Z,16.70
2018-12-20T20:54:06.241Z,16.70
2018-12-20T20:56:33.749Z,16.70
2018-12-20T20:59:03.349Z,16.70
2018-12-20T21:01:30.953Z,16.70
2018-12-20T21:04:03.407Z,16.70
2018-12-20T21:06:28.664Z,16.70
2018-12-20T21:08:56.425Z,16.70
2018-12-20T21:11:24.351Z,16.60
2018-12-20T21:13:52.030Z,16.70
2018-12-20T21:16:19.514Z,16.70
2018-12-20T21:18:47.027Z,16.70
2018-12-20T21:21:14.513Z,16.70
2018-12-20T21:23:42.098Z,16.60
2018-12-20T21:26:09.643Z,16.60
2018-12-20T21:28:38.230Z,16.70
2018-12-20T21:31:06.551Z,16.70
2018-12-20T21:33:34.030Z,16.70
2018-12-20T21:36:01.640Z,16.70
2018-12-20T21:38:30.044Z,16.60
2018-12-20T21:40:57.513Z,16.70
2018-12-20T21:43:25.062Z,16.50
2018-12-20T21:45:52.641Z,16.40
2018-12-20T21:48:20.231Z,16.40
2018-12-20T21:50:48.778Z,16.50
2018-12-20T21:53:16.330Z,16.50
2018-12-20T21:55:43.910Z,16.60
2018-12-20T21:58:11.421Z,16.70
2018-12-20T22:00:38.921Z,16.60
2018-12-20T22:03:06.515Z,16.60
2018-12-20T22:05:34.030Z,16.60
2018-12-20T22:08:01.537Z,16.60
2018-12-20T22:10:29.069Z,16.50
2018-12-20T22:12:57.687Z,16.50
2018-12-20T22:15:25.162Z,16.60
2018-12-20T22:17:52.697Z,16.60
2018-12-20T22:20:22.270Z,16.60
2018-12-20T22:22:49.821Z,16.60
2018-12-20T22:25:17.335Z,16.60
2018-12-20T22:27:44.835Z,16.60
2018-12-20T22:30:12.397Z,16.50
2018-12-20T22:32:39.955Z,16.50
2018-12-20T22:35:07.443Z,16.50
2018-12-20T22:37:35.028Z,16.50
2018-12-20T22:40:02.637Z,16.50
2018-12-20T22:42:30.106Z,16.50
2018-12-20T22:44:57.635Z,16.50
2018-12-20T22:47:25.219Z,16.60
2018-12-20T22:49:52.771Z,16.60
2018-12-20T22:52:20.270Z,16.60
2018-12-20T22:54:47.973Z,16.60
2018-12-20T22:57:15.491Z,16.60
2018-12-20T22:59:42.998Z,16.60
2018-12-20T23:02:17.888Z,16.60
2018-12-20T23:04:40.000Z,16.60
2018-12-20T23:07:07.530Z,16.60
2018-12-20T23:09:35.058Z,16.60
2018-12-20T23:12:02.635Z,16.60
2018-12-20T23:14:30.132Z,16.60
2018-12-20T23:16:57.589Z,16.70
2018-12-20T23:19:25.076Z,16.70
2018-12-20T23:21:52.628Z,16.60
2018-12-20T23:24:20.121Z,16.60
2018-12-20T23:26:47.593Z,16.70
2018-12-20T23:29:15.098Z,16.70
2018-12-20T23:31:42.634Z,16.70
2018-12-20T23:34:10.153Z,16.70
2018-12-20T23:36:37.734Z,16.70
2018-12-20T23:39:05.743Z,16.60
2018-12-20T23:41:33.214Z,16.60
2018-12-20T23:44:00.734Z,16.60
2018-12-20T23:46:28.253Z,16.60
2018-12-20T23:48:55.749Z,16.70
2018-12-20T23:51:23.235Z,16.60
2018-12-20T23:53:50.730Z,16.60
2018-12-20T23:56:18.208Z,16.70
2018-12-20T23:58:45.703Z,16.70
